sensor_id;sensor_type;location;lat;lon;timestamp;pressure;altitude;pressure_sealevel;temperature;humidity
32759;BME280;19125;52.360;9.974;2024-03-29T00:00:22;86715.13;;;-145.17;49.52
32759;BME280;19125;52.360;9.974;2024-03-29T00:02:47;86723.06;;;-145.17;49.62
32759;BME280;19125;52.360;9.974;2024-03-29T00:05:12;86734.97;;;-145.17;49.98
32759;BME280;19125;52.360;9.974;2024-03-29T00:07:38;86770.72;;;-145.17;50.06
32759;BME280;19125;52.360;9.974;2024-03-29T00:10:04;86776.66;;;-145.17;49.97
32759;BME280;19125;52.360;9.974;2024-03-29T00:12:29;86758.81;;;-145.17;50.50
32759;BME280;19125;52.360;9.974;2024-03-29T00:14:55;86760.78;;;-145.17;50.70
32759;BME280;19125;52.360;9.974;2024-03-29T00:17:21;86852.09;;;-145.17;50.41
32759;BME280;19125;52.360;9.974;2024-03-29T00:19:47;86798.50;;;-145.17;50.60
32759;BME280;19125;52.360;9.974;2024-03-29T00:22:12;86770.72;;;-145.17;50.85
32759;BME280;19125;52.360;9.974;2024-03-29T00:24:37;86784.59;;;-145.17;50.71
32759;BME280;19125;52.360;9.974;2024-03-29T00:27:03;86780.63;;;-145.17;50.75
32759;BME280;19125;52.360;9.974;2024-03-29T00:29:29;86738.94;;;-145.17;50.87
32759;BME280;19125;52.360;9.974;2024-03-29T00:31:55;86754.84;;;-145.17;50.50
32759;BME280;19125;52.360;9.974;2024-03-29T00:34:20;86772.69;;;-145.17;50.22
32759;BME280;19125;52.360;9.974;2024-03-29T00:36:46;86768.72;;;-145.17;50.41
32759;BME280;19125;52.360;9.974;2024-03-29T00:39:11;86764.75;;;-145.17;50.24
32759;BME280;19125;52.360;9.974;2024-03-29T00:41:37;86762.78;;;-145.17;50.12
32759;BME280;19125;52.360;9.974;2024-03-29T00:44:02;86766.75;;;-145.17;49.98
32759;BME280;19125;52.360;9.974;2024-03-29T00:46:28;86778.66;;;-145.17;50.50
32759;BME280;19125;52.360;9.974;2024-03-29T00:48:53;86800.47;;;-145.17;50.46
32759;BME280;19125;52.360;9.974;2024-03-29T00:51:19;86810.41;;;-145.17;50.14
32759;BME280;19125;52.360;9.974;2024-03-29T00:53:44;86782.63;;;-145.17;50.89
32759;BME280;19125;52.360;9.974;2024-03-29T00:56:10;86887.81;;;-145.17;50.74
32759;BME280;19125;52.360;9.974;2024-03-29T00:58:35;86806.44;;;-145.17;50.79
32759;BME280;19125;52.360;9.974;2024-03-29T01:01:00;86802.47;;;-145.17;51.10
32759;BME280;19125;52.360;9.974;2024-03-29T01:03:26;86854.06;;;-145.17;51.19
32759;BME280;19125;52.360;9.974;2024-03-29T01:05:54;86842.16;;;-145.17;51.17
32759;BME280;19125;52.360;9.974;2024-03-29T01:08:19;86836.19;;;-145.17;51.28
32759;BME280;19125;52.360;9.974;2024-03-29T01:10:46;86816.34;;;-145.17;51.72
32759;BME280;19125;52.360;9.974;2024-03-29T01:13:11;86806.44;;;-145.17;51.39
32759;BME280;19125;52.360;9.974;2024-03-29T01:15:36;86798.50;;;-145.17;51.56
32759;BME280;19125;52.360;9.974;2024-03-29T01:18:02;86832.22;;;-145.17;51.85
32759;BME280;19125;52.360;9.974;2024-03-29T01:20:27;86842.16;;;-145.17;52.12
32759;BME280;19125;52.360;9.974;2024-03-29T01:22:52;86836.19;;;-145.17;52.27
32759;BME280;19125;52.360;9.974;2024-03-29T01:25:18;86822.31;;;-145.17;52.14
32759;BME280;19125;52.360;9.974;2024-03-29T01:27:43;86826.28;;;-145.17;52.20
32759;BME280;19125;52.360;9.974;2024-03-29T01:30:09;86836.19;;;-145.17;52.01
32759;BME280;19125;52.360;9.974;2024-03-29T01:32:35;86865.97;;;-145.17;52.48
32759;BME280;19125;52.360;9.974;2024-03-29T01:35:00;86804.44;;;-145.17;52.42
32759;BME280;19125;52.360;9.974;2024-03-29T01:37:25;86865.97;;;-145.17;52.45
32759;BME280;19125;52.360;9.974;2024-03-29T01:39:51;86854.06;;;-145.17;52.75
32759;BME280;19125;52.360;9.974;2024-03-29T01:42:16;86858.03;;;-145.17;52.44
32759;BME280;19125;52.360;9.974;2024-03-29T01:44:42;86860.03;;;-145.17;52.48
32759;BME280;19125;52.360;9.974;2024-03-29T01:47:08;86826.28;;;-145.17;51.94
32759;BME280;19125;52.360;9.974;2024-03-29T01:49:33;86856.06;;;-145.17;52.16
32759;BME280;19125;52.360;9.974;2024-03-29T01:51:59;86830.25;;;-145.17;51.63
32759;BME280;19125;52.360;9.974;2024-03-29T01:54:25;86846.13;;;-145.17;51.63
32759;BME280;19125;52.360;9.974;2024-03-29T01:56:50;86909.63;;;-145.17;51.82
32759;BME280;19125;52.360;9.974;2024-03-29T01:59:17;86858.03;;;-145.17;52.27
32759;BME280;19125;52.360;9.974;2024-03-29T02:01:45;86877.88;;;-145.17;52.13
32759;BME280;19125;52.360;9.974;2024-03-29T02:04:10;86877.88;;;-145.17;52.21
32759;BME280;19125;52.360;9.974;2024-03-29T02:06:38;86889.78;;;-145.17;52.81
32759;BME280;19125;52.360;9.974;2024-03-29T02:09:03;86899.72;;;-145.17;52.85
32759;BME280;19125;52.360;9.974;2024-03-29T02:11:29;86852.09;;;-145.17;53.12
32759;BME280;19125;52.360;9.974;2024-03-29T02:13:54;86865.97;;;-145.17;53.15
32759;BME280;19125;52.360;9.974;2024-03-29T02:16:21;86885.81;;;-145.17;53.49
32759;BME280;19125;52.360;9.974;2024-03-29T02:18:46;86889.78;;;-145.17;53.41
32759;BME280;19125;52.360;9.974;2024-03-29T02:21:11;86899.72;;;-145.17;53.29
32759;BME280;19125;52.360;9.974;2024-03-29T02:23:41;86903.69;;;-145.17;52.89
32759;BME280;19125;52.360;9.974;2024-03-29T02:26:08;86860.03;;;-145.17;52.76
32759;BME280;19125;52.360;9.974;2024-03-29T02:28:33;86865.97;;;-145.17;52.80
32759;BME280;19125;52.360;9.974;2024-03-29T02:30:59;86937.44;;;-145.17;52.86
32759;BME280;19125;52.360;9.974;2024-03-29T02:33:24;86889.78;;;-145.17;52.42
32759;BME280;19125;52.360;9.974;2024-03-29T02:35:49;86867.97;;;-145.17;52.73
32759;BME280;19125;52.360;9.974;2024-03-29T02:38:15;86965.22;;;-145.17;52.63
32759;BME280;19125;52.360;9.974;2024-03-29T02:40:40;86887.81;;;-145.17;52.63
32759;BME280;19125;52.360;9.974;2024-03-29T02:43:06;86838.19;;;-145.17;52.64
32759;BME280;19125;52.360;9.974;2024-03-29T02:45:31;86915.59;;;-145.17;52.70
32759;BME280;19125;52.360;9.974;2024-03-29T02:47:56;86885.81;;;-145.17;53.19
32759;BME280;19125;52.360;9.974;2024-03-29T02:50:22;86873.91;;;-145.17;52.89
32759;BME280;19125;52.360;9.974;2024-03-29T02:52:47;86907.66;;;-145.17;53.20
32759;BME280;19125;52.360;9.974;2024-03-29T02:55:12;86941.38;;;-145.17;53.30
32759;BME280;19125;52.360;9.974;2024-03-29T02:57:39;86893.75;;;-145.17;53.17
32759;BME280;19125;52.360;9.974;2024-03-29T03:00:05;86965.22;;;-145.17;53.31
32759;BME280;19125;52.360;9.974;2024-03-29T03:02:31;86877.88;;;-145.17;53.67
32759;BME280;19125;52.360;9.974;2024-03-29T03:04:56;86895.75;;;-145.17;53.66
32759;BME280;19125;52.360;9.974;2024-03-29T03:07:22;86963.22;;;-145.17;53.72
32759;BME280;19125;52.360;9.974;2024-03-29T03:10:06;86907.66;;;-145.17;53.88
32759;BME280;19125;52.360;9.974;2024-03-29T03:12:50;86923.53;;;-145.17;54.10
32759;BME280;19125;52.360;9.974;2024-03-29T03:15:15;86901.69;;;-145.17;54.13
32759;BME280;19125;52.360;9.974;2024-03-29T03:17:40;86981.09;;;-145.17;54.12
32759;BME280;19125;52.360;9.974;2024-03-29T03:20:06;86941.38;;;-145.17;54.10
32759;BME280;19125;52.360;9.974;2024-03-29T03:22:32;86921.53;;;-145.17;54.17
32759;BME280;19125;52.360;9.974;2024-03-29T03:24:57;86921.53;;;-145.17;54.47
32759;BME280;19125;52.360;9.974;2024-03-29T03:27:23;86889.78;;;-145.17;54.11
32759;BME280;19125;52.360;9.974;2024-03-29T03:29:48;86877.88;;;-145.17;54.17
32759;BME280;19125;52.360;9.974;2024-03-29T03:32:14;86919.56;;;-145.17;54.21
32759;BME280;19125;52.360;9.974;2024-03-29T03:34:39;86909.63;;;-145.17;54.10
32759;BME280;19125;52.360;9.974;2024-03-29T03:37:05;86850.09;;;-145.17;54.10
32759;BME280;19125;52.360;9.974;2024-03-29T03:39:31;86893.75;;;-145.17;54.25
32759;BME280;19125;52.360;9.974;2024-03-29T03:41:56;86903.69;;;-145.17;53.99
32759;BME280;19125;52.360;9.974;2024-03-29T03:44:21;86897.72;;;-145.17;54.06
32759;BME280;19125;52.360;9.974;2024-03-29T03:46:49;86935.44;;;-145.17;54.35
32759;BME280;19125;52.360;9.974;2024-03-29T03:49:15;86917.56;;;-145.17;54.66
32759;BME280;19125;52.360;9.974;2024-03-29T03:51:40;86917.56;;;-145.17;54.57
32759;BME280;19125;52.360;9.974;2024-03-29T03:54:05;86921.53;;;-145.17;54.85
32759;BME280;19125;52.360;9.974;2024-03-29T03:56:31;86927.50;;;-145.17;54.68
32759;BME280;19125;52.360;9.974;2024-03-29T03:58:56;86897.72;;;-145.17;54.81
32759;BME280;19125;52.360;9.974;2024-03-29T04:01:21;86899.72;;;-145.17;55.09
32759;BME280;19125;52.360;9.974;2024-03-29T04:03:47;86909.63;;;-145.17;54.89
32759;BME280;19125;52.360;9.974;2024-03-29T04:06:12;86897.72;;;-145.17;54.87
32759;BME280;19125;52.360;9.974;2024-03-29T04:08:37;86917.56;;;-145.17;54.51
32759;BME280;19125;52.360;9.974;2024-03-29T04:11:04;86925.50;;;-145.17;54.64
32759;BME280;19125;52.360;9.974;2024-03-29T04:13:29;86917.56;;;-145.17;55.08
32759;BME280;19125;52.360;9.974;2024-03-29T04:16:04;86917.56;;;-145.17;54.97
32759;BME280;19125;52.360;9.974;2024-03-29T04:18:30;86917.56;;;-145.17;55.07
32759;BME280;19125;52.360;9.974;2024-03-29T04:20:57;86921.53;;;-145.17;55.13
32759;BME280;19125;52.360;9.974;2024-03-29T04:23:22;86877.88;;;-145.17;54.79
32759;BME280;19125;52.360;9.974;2024-03-29T04:25:58;86921.53;;;-145.17;54.89
32759;BME280;19125;52.360;9.974;2024-03-29T04:28:24;86919.56;;;-145.17;55.21
32759;BME280;19125;52.360;9.974;2024-03-29T04:30:54;86891.78;;;-145.17;55.23
32759;BME280;19125;52.360;9.974;2024-03-29T04:33:20;86858.03;;;-145.17;55.13
32759;BME280;19125;52.360;9.974;2024-03-29T04:36:00;86897.72;;;-145.17;54.95
32759;BME280;19125;52.360;9.974;2024-03-29T04:38:26;86901.69;;;-145.17;54.86
32759;BME280;19125;52.360;9.974;2024-03-29T04:40:53;86975.13;;;-145.17;55.16
32759;BME280;19125;52.360;9.974;2024-03-29T04:43:21;86913.59;;;-145.17;54.96
32759;BME280;19125;52.360;9.974;2024-03-29T04:45:46;86881.84;;;-145.17;55.08
32759;BME280;19125;52.360;9.974;2024-03-29T04:48:12;86893.75;;;-145.17;55.11
32759;BME280;19125;52.360;9.974;2024-03-29T04:50:38;86903.69;;;-145.17;55.13
32759;BME280;19125;52.360;9.974;2024-03-29T04:53:03;86893.75;;;-145.17;54.89
32759;BME280;19125;52.360;9.974;2024-03-29T04:55:29;86881.84;;;-145.17;54.70
32759;BME280;19125;52.360;9.974;2024-03-29T04:57:54;86877.88;;;-145.17;54.83
32759;BME280;19125;52.360;9.974;2024-03-29T05:00:20;86891.78;;;-145.17;54.61
32759;BME280;19125;52.360;9.974;2024-03-29T05:02:45;86862.00;;;-145.17;54.42
32759;BME280;19125;52.360;9.974;2024-03-29T05:05:10;86881.84;;;-145.17;54.29
32759;BME280;19125;52.360;9.974;2024-03-29T05:07:36;86860.03;;;-145.17;54.05
32759;BME280;19125;52.360;9.974;2024-03-29T05:10:01;86820.31;;;-145.17;53.50
32759;BME280;19125;52.360;9.974;2024-03-29T05:12:31;86850.09;;;-145.17;53.46
32759;BME280;19125;52.360;9.974;2024-03-29T05:14:57;86836.19;;;-145.17;53.30
32759;BME280;19125;52.360;9.974;2024-03-29T05:17:22;86820.31;;;-145.17;53.19
32759;BME280;19125;52.360;9.974;2024-03-29T05:19:50;86840.16;;;-145.17;52.37
32759;BME280;19125;52.360;9.974;2024-03-29T05:22:16;86850.09;;;-145.17;52.30
32759;BME280;19125;52.360;9.974;2024-03-29T05:24:41;86822.31;;;-145.17;52.65
32759;BME280;19125;52.360;9.974;2024-03-29T05:27:06;86806.44;;;-145.17;52.32
32759;BME280;19125;52.360;9.974;2024-03-29T05:29:32;86838.19;;;-145.17;52.12
32759;BME280;19125;52.360;9.974;2024-03-29T05:31:57;86814.38;;;-145.17;52.03
32759;BME280;19125;52.360;9.974;2024-03-29T05:34:22;86760.78;;;-145.17;51.86
32759;BME280;19125;52.360;9.974;2024-03-29T05:36:48;86792.53;;;-145.17;51.69
32759;BME280;19125;52.360;9.974;2024-03-29T05:39:13;86784.59;;;-145.17;51.50
32759;BME280;19125;52.360;9.974;2024-03-29T05:41:40;86774.69;;;-145.17;51.00
32759;BME280;19125;52.360;9.974;2024-03-29T05:44:06;86762.78;;;-145.17;50.81
32759;BME280;19125;52.360;9.974;2024-03-29T05:46:31;86750.88;;;-145.17;50.58
32759;BME280;19125;52.360;9.974;2024-03-29T05:48:56;86740.94;;;-145.17;50.71
32759;BME280;19125;52.360;9.974;2024-03-29T05:51:22;86750.88;;;-145.17;50.88
32759;BME280;19125;52.360;9.974;2024-03-29T05:53:47;86738.94;;;-145.17;51.27
32759;BME280;19125;52.360;9.974;2024-03-29T05:56:12;86770.72;;;-145.17;51.13
32759;BME280;19125;52.360;9.974;2024-03-29T05:58:38;86740.94;;;-145.17;51.21
32759;BME280;19125;52.360;9.974;2024-03-29T06:01:03;86727.03;;;-145.17;51.54
32759;BME280;19125;52.360;9.974;2024-03-29T06:03:29;86727.03;;;-145.17;51.70
32759;BME280;19125;52.360;9.974;2024-03-29T06:05:55;86723.06;;;-145.17;52.17
32759;BME280;19125;52.360;9.974;2024-03-29T06:08:20;86770.72;;;-145.17;52.69
32759;BME280;19125;52.360;9.974;2024-03-29T06:10:46;86786.59;;;-145.17;52.83
32759;BME280;19125;52.360;9.974;2024-03-29T06:13:12;86742.91;;;-145.17;53.18
32759;BME280;19125;52.360;9.974;2024-03-29T06:15:55;86786.59;;;-145.17;53.51
32759;BME280;19125;52.360;9.974;2024-03-29T06:18:39;86790.56;;;-145.17;54.06
32759;BME280;19125;52.360;9.974;2024-03-29T06:21:04;86756.81;;;-145.17;54.43
32759;BME280;19125;52.360;9.974;2024-03-29T06:23:30;86774.69;;;-145.17;54.38
32759;BME280;19125;52.360;9.974;2024-03-29T06:25:55;86774.69;;;-145.17;54.80
32759;BME280;19125;52.360;9.974;2024-03-29T06:28:21;86792.53;;;-145.17;54.93
32759;BME280;19125;52.360;9.974;2024-03-29T06:30:46;86762.78;;;-145.17;55.55
32759;BME280;19125;52.360;9.974;2024-03-29T06:33:11;86802.47;;;-145.17;55.43
32759;BME280;19125;52.360;9.974;2024-03-29T06:35:37;86826.28;;;-145.17;56.15
32759;BME280;19125;52.360;9.974;2024-03-29T06:38:02;86804.44;;;-145.17;56.49
32759;BME280;19125;52.360;9.974;2024-03-29T06:40:28;86832.22;;;-145.17;56.89
32759;BME280;19125;52.360;9.974;2024-03-29T06:42:53;86826.28;;;-145.17;57.21
32759;BME280;19125;52.360;9.974;2024-03-29T06:45:21;86873.91;;;-145.17;57.24
32759;BME280;19125;52.360;9.974;2024-03-29T06:47:47;86850.09;;;-145.17;57.68
32759;BME280;19125;52.360;9.974;2024-03-29T06:50:12;86858.03;;;-145.17;57.88
32759;BME280;19125;52.360;9.974;2024-03-29T06:52:37;86911.63;;;-145.17;58.32
32759;BME280;19125;52.360;9.974;2024-03-29T06:55:03;86889.78;;;-145.17;58.38
32759;BME280;19125;52.360;9.974;2024-03-29T06:57:28;86913.59;;;-145.17;58.83
32759;BME280;19125;52.360;9.974;2024-03-29T06:59:56;86929.47;;;-145.17;59.15
32759;BME280;19125;52.360;9.974;2024-03-29T07:02:22;86945.38;;;-145.17;59.19
32759;BME280;19125;52.360;9.974;2024-03-29T07:04:47;86919.56;;;-145.17;59.68
32759;BME280;19125;52.360;9.974;2024-03-29T07:07:13;86971.16;;;-145.17;59.85
32759;BME280;19125;52.360;9.974;2024-03-29T07:09:38;86967.19;;;-145.17;59.99
32759;BME280;19125;52.360;9.974;2024-03-29T07:12:04;86963.22;;;-145.17;60.23
32759;BME280;19125;52.360;9.974;2024-03-29T07:14:29;87050.56;;;-145.17;60.57
32759;BME280;19125;52.360;9.974;2024-03-29T07:16:56;86987.03;;;-145.17;60.75
32759;BME280;19125;52.360;9.974;2024-03-29T07:19:22;87020.78;;;-145.17;61.20
32759;BME280;19125;52.360;9.974;2024-03-29T07:21:48;87008.88;;;-145.17;61.17
32759;BME280;19125;52.360;9.974;2024-03-29T07:24:16;87008.88;;;-145.17;61.35
32759;BME280;19125;52.360;9.974;2024-03-29T07:26:42;87026.75;;;-145.17;61.30
32759;BME280;19125;52.360;9.974;2024-03-29T07:29:07;87034.69;;;-145.17;61.70
32759;BME280;19125;52.360;9.974;2024-03-29T07:31:33;87040.63;;;-145.17;61.92
32759;BME280;19125;52.360;9.974;2024-03-29T07:33:59;87032.69;;;-145.17;61.74
32759;BME280;19125;52.360;9.974;2024-03-29T07:36:24;87086.28;;;-145.17;62.14
32759;BME280;19125;52.360;9.974;2024-03-29T07:38:52;87056.50;;;-145.17;62.20
32759;BME280;19125;52.360;9.974;2024-03-29T07:41:18;87040.63;;;-145.17;62.18
32759;BME280;19125;52.360;9.974;2024-03-29T07:43:55;87010.84;;;-145.17;61.94
32759;BME280;19125;52.360;9.974;2024-03-29T07:46:35;87028.72;;;-145.17;62.21
32759;BME280;19125;52.360;9.974;2024-03-29T07:49:01;87038.66;;;-145.17;61.77
32759;BME280;19125;52.360;9.974;2024-03-29T07:51:28;87022.78;;;-145.17;62.13
32759;BME280;19125;52.360;9.974;2024-03-29T07:53:53;87000.94;;;-145.17;61.98
32759;BME280;19125;52.360;9.974;2024-03-29T07:56:18;87020.78;;;-145.17;62.00
32759;BME280;19125;52.360;9.974;2024-03-29T07:58:45;86983.06;;;-145.17;61.70
32759;BME280;19125;52.360;9.974;2024-03-29T08:01:10;87016.81;;;-145.17;61.62
32759;BME280;19125;52.360;9.974;2024-03-29T08:03:35;86949.34;;;-145.17;61.94
32759;BME280;19125;52.360;9.974;2024-03-29T08:06:03;86943.38;;;-145.17;61.36
32759;BME280;19125;52.360;9.974;2024-03-29T08:08:32;86989.03;;;-145.17;61.35
32759;BME280;19125;52.360;9.974;2024-03-29T08:10:59;86905.66;;;-145.17;61.20
32759;BME280;19125;52.360;9.974;2024-03-29T08:13:26;86935.44;;;-145.17;60.74
32759;BME280;19125;52.360;9.974;2024-03-29T08:15:59;86877.88;;;-145.17;60.55
32759;BME280;19125;52.360;9.974;2024-03-29T08:18:26;86879.88;;;-145.17;60.16
32759;BME280;19125;52.360;9.974;2024-03-29T08:20:51;86852.09;;;-145.17;59.81
32759;BME280;19125;52.360;9.974;2024-03-29T08:23:17;86838.19;;;-145.17;60.25
32759;BME280;19125;52.360;9.974;2024-03-29T08:25:42;86798.50;;;-145.17;59.76
32759;BME280;19125;52.360;9.974;2024-03-29T08:28:08;86742.91;;;-145.17;59.17
32759;BME280;19125;52.360;9.974;2024-03-29T08:30:33;86752.84;;;-145.17;59.03
32759;BME280;19125;52.360;9.974;2024-03-29T08:33:02;86776.66;;;-145.17;58.64
32759;BME280;19125;52.360;9.974;2024-03-29T08:35:29;86703.22;;;-145.17;58.70
32759;BME280;19125;52.360;9.974;2024-03-29T08:37:54;86687.34;;;-145.17;58.06
32759;BME280;19125;52.360;9.974;2024-03-29T08:40:19;86661.56;;;-145.17;57.71
32759;BME280;19125;52.360;9.974;2024-03-29T08:42:45;86600.03;;;-145.17;57.27
32759;BME280;19125;52.360;9.974;2024-03-29T08:45:10;86625.81;;;-145.17;56.67
32759;BME280;19125;52.360;9.974;2024-03-29T08:47:37;86592.09;;;-145.17;56.00
32759;BME280;19125;52.360;9.974;2024-03-29T08:50:02;86592.09;;;-145.17;55.84
32759;BME280;19125;52.360;9.974;2024-03-29T08:52:29;86572.25;;;-145.17;55.39
32759;BME280;19125;52.360;9.974;2024-03-29T08:54:54;86550.41;;;-145.17;55.07
32759;BME280;19125;52.360;9.974;2024-03-29T08:57:20;86560.34;;;-145.17;54.95
32759;BME280;19125;52.360;9.974;2024-03-29T08:59:45;86600.03;;;-145.17;54.84
32759;BME280;19125;52.360;9.974;2024-03-29T09:02:10;86508.75;;;-145.17;54.47
32759;BME280;19125;52.360;9.974;2024-03-29T09:04:36;86471.03;;;-145.17;54.30
32759;BME280;19125;52.360;9.974;2024-03-29T09:07:02;86512.72;;;-145.17;53.68
32759;BME280;19125;52.360;9.974;2024-03-29T09:09:31;86556.38;;;-145.17;53.27
32759;BME280;19125;52.360;9.974;2024-03-29T09:11:56;86522.63;;;-145.17;53.40
32759;BME280;19125;52.360;9.974;2024-03-29T09:14:22;86518.66;;;-145.17;53.33
32759;BME280;19125;52.360;9.974;2024-03-29T09:16:47;86516.69;;;-145.17;53.33
32759;BME280;19125;52.360;9.974;2024-03-29T09:19:16;86572.25;;;-145.17;53.25
32759;BME280;19125;52.360;9.974;2024-03-29T09:21:41;86528.59;;;-145.17;53.46
32759;BME280;19125;52.360;9.974;2024-03-29T09:24:07;86598.03;;;-145.17;53.09
32759;BME280;19125;52.360;9.974;2024-03-29T09:26:35;86544.47;;;-145.17;53.21
32759;BME280;19125;52.360;9.974;2024-03-29T09:29:02;86510.72;;;-145.17;53.31
32759;BME280;19125;52.360;9.974;2024-03-29T09:31:27;86480.97;;;-145.17;53.07
32759;BME280;19125;52.360;9.974;2024-03-29T09:33:52;86478.97;;;-145.17;52.77
32759;BME280;19125;52.360;9.974;2024-03-29T09:36:22;86496.84;;;-145.17;52.65
32759;BME280;19125;52.360;9.974;2024-03-29T09:38:51;86439.28;;;-145.17;52.55
32759;BME280;19125;52.360;9.974;2024-03-29T09:41:19;86445.25;;;-145.17;52.65
32759;BME280;19125;52.360;9.974;2024-03-29T09:43:46;86447.22;;;-145.17;52.21
32759;BME280;19125;52.360;9.974;2024-03-29T09:46:16;86439.28;;;-145.17;52.17
32759;BME280;19125;52.360;9.974;2024-03-29T09:48:43;86403.56;;;-145.17;51.86
32759;BME280;19125;52.360;9.974;2024-03-29T09:51:11;86383.72;;;-145.17;51.70
32759;BME280;19125;52.360;9.974;2024-03-29T09:53:39;86397.59;;;-145.17;51.37
32759;BME280;19125;52.360;9.974;2024-03-29T09:56:06;86371.81;;;-145.17;51.21
32759;BME280;19125;52.360;9.974;2024-03-29T09:58:32;86340.06;;;-145.17;50.73
32759;BME280;19125;52.360;9.974;2024-03-29T10:00:58;86288.47;;;-145.17;50.40
32759;BME280;19125;52.360;9.974;2024-03-29T10:03:25;86282.50;;;-145.17;50.15
32759;BME280;19125;52.360;9.974;2024-03-29T10:06:01;86308.31;;;-145.17;49.64
32759;BME280;19125;52.360;9.974;2024-03-29T10:08:29;86280.53;;;-145.17;49.71
32759;BME280;19125;52.360;9.974;2024-03-29T10:10:56;86262.66;;;-145.17;49.50
32759;BME280;19125;52.360;9.974;2024-03-29T10:13:22;86252.75;;;-145.17;48.79
32759;BME280;19125;52.360;9.974;2024-03-29T10:15:51;86244.81;;;-145.17;49.13
32759;BME280;19125;52.360;9.974;2024-03-29T10:18:18;86207.09;;;-145.17;49.36
32759;BME280;19125;52.360;9.974;2024-03-29T10:20:45;86228.94;;;-145.17;49.14
32759;BME280;19125;52.360;9.974;2024-03-29T10:23:12;86308.31;;;-145.17;48.87
32759;BME280;19125;52.360;9.974;2024-03-29T10:25:38;86234.88;;;-145.17;48.70
32759;BME280;19125;52.360;9.974;2024-03-29T10:28:03;86244.81;;;-145.17;48.49
32759;BME280;19125;52.360;9.974;2024-03-29T10:30:29;86181.31;;;-145.17;48.37
32759;BME280;19125;52.360;9.974;2024-03-29T10:32:56;86155.50;;;-145.17;48.10
32759;BME280;19125;52.360;9.974;2024-03-29T10:35:22;86195.19;;;-145.17;47.93
32759;BME280;19125;52.360;9.974;2024-03-29T10:37:47;86153.53;;;-145.17;47.78
32759;BME280;19125;52.360;9.974;2024-03-29T10:40:13;86163.44;;;-145.17;47.83
32759;BME280;19125;52.360;9.974;2024-03-29T10:42:43;86113.84;;;-145.17;47.30
32759;BME280;19125;52.360;9.974;2024-03-29T10:45:10;86159.47;;;-145.17;47.35
32759;BME280;19125;52.360;9.974;2024-03-29T10:47:35;86131.69;;;-145.17;47.50
32759;BME280;19125;52.360;9.974;2024-03-29T10:50:01;86131.69;;;-145.17;47.42
32759;BME280;19125;52.360;9.974;2024-03-29T10:52:30;86175.34;;;-145.17;47.10
32759;BME280;19125;52.360;9.974;2024-03-29T10:54:57;86149.56;;;-145.17;47.38
32759;BME280;19125;52.360;9.974;2024-03-29T10:57:24;86195.19;;;-145.17;47.42
32759;BME280;19125;52.360;9.974;2024-03-29T11:00:12;86165.44;;;-145.17;46.88
32759;BME280;19125;52.360;9.974;2024-03-29T11:02:57;86101.94;;;-145.17;46.92
32759;BME280;19125;52.360;9.974;2024-03-29T11:05:33;86070.19;;;-145.17;46.82
32759;BME280;19125;52.360;9.974;2024-03-29T11:08:01;86105.91;;;-145.17;46.30
32759;BME280;19125;52.360;9.974;2024-03-29T11:10:33;86097.97;;;-145.17;46.45
32759;BME280;19125;52.360;9.974;2024-03-29T11:13:03;86092.00;;;-145.17;47.40
32759;BME280;19125;52.360;9.974;2024-03-29T11:15:31;86082.09;;;-145.17;45.70
32759;BME280;19125;52.360;9.974;2024-03-29T11:18:00;86123.75;;;-145.17;45.50
32759;BME280;19125;52.360;9.974;2024-03-29T11:20:27;86115.81;;;-145.17;45.47
32759;BME280;19125;52.360;9.974;2024-03-29T11:23:08;86151.53;;;-145.17;46.56
32759;BME280;19125;52.360;9.974;2024-03-29T11:25:42;86131.69;;;-145.17;46.32
32759;BME280;19125;52.360;9.974;2024-03-29T11:28:10;86157.50;;;-145.17;45.86
32759;BME280;19125;52.360;9.974;2024-03-29T11:31:00;86139.63;;;-145.17;46.74
32759;BME280;19125;52.360;9.974;2024-03-29T11:33:28;86103.91;;;-145.17;47.09
32759;BME280;19125;52.360;9.974;2024-03-29T11:35:54;86135.66;;;-145.17;45.94
32759;BME280;19125;52.360;9.974;2024-03-29T11:38:19;86088.03;;;-145.17;46.18
32759;BME280;19125;52.360;9.974;2024-03-29T11:41:07;86101.94;;;-145.17;46.02
32759;BME280;19125;52.360;9.974;2024-03-29T11:43:34;86048.34;;;-145.17;45.75
32759;BME280;19125;52.360;9.974;2024-03-29T11:46:00;86046.38;;;-145.17;46.21
32759;BME280;19125;52.360;9.974;2024-03-29T11:48:27;85949.13;;;-145.17;45.53
32759;BME280;19125;52.360;9.974;2024-03-29T11:50:53;85937.22;;;-145.17;44.39
32759;BME280;19125;52.360;9.974;2024-03-29T11:53:22;85988.81;;;-145.17;44.44
32759;BME280;19125;52.360;9.974;2024-03-29T11:55:47;85935.25;;;-145.17;44.25
32759;BME280;19125;52.360;9.974;2024-03-29T11:58:23;85905.47;;;-145.17;44.97
32759;BME280;19125;52.360;9.974;2024-03-29T12:00:49;85925.31;;;-145.17;44.17
32759;BME280;19125;52.360;9.974;2024-03-29T12:03:16;85937.22;;;-145.17;42.80
32759;BME280;19125;52.360;9.974;2024-03-29T12:05:43;85961.03;;;-145.17;44.55
32759;BME280;19125;52.360;9.974;2024-03-29T12:08:08;85994.78;;;-145.17;43.77
32759;BME280;19125;52.360;9.974;2024-03-29T12:10:35;85996.75;;;-145.17;42.59
32759;BME280;19125;52.360;9.974;2024-03-29T12:13:02;85984.84;;;-145.17;43.25
32759;BME280;19125;52.360;9.974;2024-03-29T12:15:29;85972.94;;;-145.17;44.03
32759;BME280;19125;52.360;9.974;2024-03-29T12:17:59;85929.28;;;-145.17;43.57
32759;BME280;19125;52.360;9.974;2024-03-29T12:20:28;85903.50;;;-145.17;43.47
32759;BME280;19125;52.360;9.974;2024-03-29T12:22:54;85849.94;;;-145.17;43.33
32759;BME280;19125;52.360;9.974;2024-03-29T12:25:20;85895.56;;;-145.17;43.47
32759;BME280;19125;52.360;9.974;2024-03-29T12:27:49;85847.94;;;-145.17;43.16
32759;BME280;19125;52.360;9.974;2024-03-29T12:30:14;85883.66;;;-145.17;42.77
32759;BME280;19125;52.360;9.974;2024-03-29T12:32:40;85885.66;;;-145.17;42.65
32759;BME280;19125;52.360;9.974;2024-03-29T12:35:13;85861.84;;;-145.17;42.83
32759;BME280;19125;52.360;9.974;2024-03-29T12:37:47;85897.53;;;-145.17;42.79